Current | Forecast
Updated: 3:00 AM EEST on October 23, 2017
Observed at Krivvy Rih, Ukraine
Temperature 0°C
Humidity 100%
Dew Point 0°C
Wind North at 0 km/h
Pressure 1019 hPa (Steady)
Conditions Overcast
Visibility -
UV 0 out of 16
Clouds Overcast (OVC) : 518 m
Yesterday's Maximum 10°C
Yesterday's Minimum 1°C approx.
Yesterday's Heating Degree Days 23 approx.
Sunrise7:21 AM EEST
Sunset5:47 PM EEST
Moon Rise10:40 AM EEST
Moon Set8:13 PM EEST
Moon PhaseMoon Phase
Waxing Crescent
Raw METARMETAR UKDR 230000Z 00000MPS 3400 BR OVC017 00/M00 Q1019 R36/19//60 BECMG 0400 FZFG VV002


Monday
. High: 57° F.
Tuesday
. High: 64° F.
Wednesday
. High: 66° F.
Thursday
. High: 71° F.
Friday
. High: 60° F.
Saturday
. High: 59° F.
Sunday
. High: 68° F.
Monday
. High: 69° F.

Units: English | Metric

Find the Weather for any City, State or Zipcode, or Country:

U.S. State List | Severe Weather | Tropical Storms | Ski Conditions
United States | Canada | Central America | South America | Asia | Europe | Australia | Africa | Islands

Weather Underground

© Copyright 2017
The Weather Company, LLC